createdAt,value
2022-12-13T00:04:35.814Z,-4.26
2022-12-13T00:09:36.936Z,-4.43
2022-12-13T00:14:37.680Z,-4.40
2022-12-13T00:19:38.477Z,-4.40
2022-12-13T00:24:45.766Z,-4.32
2022-12-13T00:29:46.878Z,-4.41
2022-12-13T00:34:47.849Z,-4.27
2022-12-13T00:39:48.623Z,-4.44
2022-12-13T00:44:49.732Z,-4.35
2022-12-13T00:49:50.521Z,-4.39
2022-12-13T00:54:51.305Z,-4.53
2022-12-13T00:59:52.057Z,-4.36
2022-12-13T01:04:52.861Z,-4.61
2022-12-13T01:09:53.633Z,-4.46
2022-12-13T01:14:56.229Z,-4.31
2022-12-13T01:19:57.850Z,-4.31
2022-12-13T01:24:58.549Z,-4.42
2022-12-13T01:29:59.308Z,-4.36
2022-12-13T01:35:00.296Z,-4.67
2022-12-13T01:40:01.175Z,-4.73
2022-12-13T01:45:06.809Z,-4.61
2022-12-13T01:50:13.497Z,-4.71
2022-12-13T01:55:16.228Z,-4.77
2022-12-13T02:00:17.638Z,-4.74
2022-12-13T02:05:31.100Z,-4.75
2022-12-13T02:10:32.190Z,-4.84
2022-12-13T02:15:54.095Z,-4.71
2022-12-13T02:21:30.199Z,-4.67
2022-12-13T02:27:00.108Z,-4.80
2022-12-13T02:32:07.716Z,-4.91
2022-12-13T02:37:30.039Z,-4.86
2022-12-13T02:42:37.087Z,-4.97
2022-12-13T02:47:42.739Z,-4.87
2022-12-13T02:52:45.803Z,-4.84
2022-12-13T02:57:47.937Z,-5.28
2022-12-13T03:03:33.995Z,-5.38
2022-12-13T03:15:38.888Z,-5.26
2022-12-13T03:20:39.693Z,-5.31
2022-12-13T03:25:40.512Z,-5.36
2022-12-13T03:30:41.383Z,-5.23
2022-12-13T03:35:44.371Z,-5.20
2022-12-13T03:40:46.413Z,-5.39
2022-12-13T03:45:47.161Z,-5.48
2022-12-13T03:50:49.206Z,-5.48
2022-12-13T03:55:49.970Z,-5.69
2022-12-13T04:00:50.850Z,-5.94
2022-12-13T04:05:51.585Z,-5.77
2022-12-13T04:10:52.511Z,-6.01
2022-12-13T04:15:53.279Z,-5.85
2022-12-13T04:20:54.146Z,-5.99
2022-12-13T04:25:55.031Z,-5.87
2022-12-13T04:30:55.803Z,-5.74
2022-12-13T04:35:56.500Z,-5.66
2022-12-13T04:41:08.277Z,-5.51
2022-12-13T04:46:09.361Z,-5.56
2022-12-13T04:51:10.597Z,-5.59
2022-12-13T04:56:11.311Z,-5.47
2022-12-13T05:01:12.719Z,-5.64
2022-12-13T05:06:26.648Z,-5.74
2022-12-13T05:11:35.809Z,-5.80
2022-12-13T05:16:37.036Z,-5.78
2022-12-13T05:21:37.947Z,-5.81
2022-12-13T05:26:38.708Z,-5.88
2022-12-13T05:31:39.511Z,-5.96
2022-12-13T05:36:40.328Z,-5.88
2022-12-13T05:41:41.952Z,-5.96
2022-12-13T05:46:42.766Z,-5.95
2022-12-13T05:51:44.251Z,-5.87
2022-12-13T05:56:45.014Z,-5.92
2022-12-13T06:01:45.885Z,-6.00
2022-12-13T06:06:46.581Z,-5.90
2022-12-13T06:11:51.935Z,-5.94
2022-12-13T06:17:02.987Z,-5.99
2022-12-13T06:22:04.678Z,-6.00
2022-12-13T06:27:05.415Z,-6.06
2022-12-13T06:32:06.435Z,-6.19
2022-12-13T06:37:11.417Z,-6.20
2022-12-13T06:42:21.664Z,-6.13
2022-12-13T06:47:32.207Z,-6.24
2022-12-13T06:52:34.298Z,-6.17
2022-12-13T06:57:35.183Z,-6.16
2022-12-13T07:02:37.489Z,-6.31
2022-12-13T07:07:38.432Z,-6.27
2022-12-13T07:12:39.569Z,-6.36
2022-12-13T07:17:41.864Z,-6.07
2022-12-13T07:22:47.827Z,-6.16
2022-12-13T07:28:03.591Z,-5.97
2022-12-13T07:33:05.421Z,-5.88
2022-12-13T07:38:08.415Z,-5.86
2022-12-13T07:43:09.656Z,-5.52
2022-12-13T07:48:10.433Z,-5.51
2022-12-13T07:53:11.335Z,-5.31
2022-12-13T07:58:15.070Z,-5.29
2022-12-13T08:03:24.568Z,-5.46
2022-12-13T08:08:31.530Z,-5.42
2022-12-13T08:13:33.446Z,-5.60
2022-12-13T08:18:34.432Z,-5.63
2022-12-13T08:23:35.911Z,-5.44
2022-12-13T08:28:37.277Z,-5.28
2022-12-13T08:33:39.667Z,-5.69
2022-12-13T08:38:41.077Z,-5.60
2022-12-13T08:43:41.943Z,-5.42
2022-12-13T08:48:44.252Z,-5.47
2022-12-13T08:53:45.567Z,-5.03
2022-12-13T08:58:51.062Z,-4.87
2022-12-13T09:03:55.227Z,-5.01
2022-12-13T09:08:56.106Z,-5.16
2022-12-13T09:14:01.528Z,-5.22
2022-12-13T09:19:24.752Z,-5.48
2022-12-13T09:24:27.733Z,-5.76
2022-12-13T09:29:28.426Z,-5.54
2022-12-13T09:34:29.264Z,-5.51
2022-12-13T09:39:30.104Z,-5.70
2022-12-13T09:44:43.798Z,-5.46
2022-12-13T09:49:52.193Z,-5.56
2022-12-13T09:54:58.459Z,-5.47
2022-12-13T10:00:02.786Z,-5.10
2022-12-13T10:05:44.898Z,-4.57
2022-12-13T10:10:45.851Z,-4.68
2022-12-13T10:16:06.297Z,-4.56
2022-12-13T10:21:11.071Z,-4.16
2022-12-13T10:26:23.970Z,-4.02
2022-12-13T10:31:25.554Z,-3.29
2022-12-13T10:36:32.237Z,-3.57
2022-12-13T10:41:38.328Z,-3.74
2022-12-13T10:46:42.077Z,-3.32
2022-12-13T10:51:43.626Z,-3.55
2022-12-13T10:56:53.116Z,-3.75
2022-12-13T11:01:54.463Z,-3.91
2022-12-13T11:06:58.150Z,-3.95
2022-12-13T11:12:10.565Z,-3.80
2022-12-13T11:17:20.154Z,-3.82
2022-12-13T11:22:39.457Z,-3.72
2022-12-13T11:29:42.886Z,-3.99
2022-12-13T11:35:08.544Z,-3.63
2022-12-13T11:40:40.058Z,-3.19
2022-12-13T11:45:50.223Z,-3.08
2022-12-13T11:50:54.987Z,-3.39
2022-12-13T11:56:45.369Z,-2.83
2022-12-13T12:02:57.977Z,-2.85
2022-12-13T12:08:31.721Z,-2.74
2022-12-13T12:13:50.503Z,-2.48
2022-12-13T12:18:52.636Z,-2.73
2022-12-13T12:27:22.269Z,-2.86
2022-12-13T12:32:46.231Z,-3.19
2022-12-13T12:38:20.450Z,-3.17
2022-12-13T12:43:58.376Z,-3.26
2022-12-13T12:50:00.740Z,-3.32
2022-12-13T12:58:07.682Z,-3.34
2022-12-13T13:03:22.557Z,-3.37
2022-12-13T13:10:26.957Z,-3.29
2022-12-13T13:16:28.495Z,-3.10
2022-12-13T13:21:37.490Z,-3.53
2022-12-13T13:26:56.542Z,-3.37
2022-12-13T13:33:50.434Z,-3.18
2022-12-13T13:38:52.792Z,-3.25
2022-12-13T13:43:53.604Z,-3.20
2022-12-13T13:49:01.333Z,-2.68
2022-12-13T13:54:41.260Z,-2.95
2022-12-13T14:00:17.013Z,-2.91
2022-12-13T14:13:29.262Z,-2.84
2022-12-13T14:22:07.672Z,-3.30
2022-12-13T14:27:35.450Z,-3.87
2022-12-13T14:32:38.683Z,-4.13
2022-12-13T14:37:39.505Z,-4.22
2022-12-13T14:42:41.527Z,-4.40
2022-12-13T14:47:49.465Z,-4.66
2022-12-13T14:52:50.557Z,-4.78
2022-12-13T14:57:57.213Z,-4.70
2022-12-13T15:03:01.948Z,-4.67
2022-12-13T15:08:10.820Z,-4.63
2022-12-13T15:14:12.737Z,-4.65
2022-12-13T15:19:31.060Z,-4.75
2022-12-13T15:24:41.102Z,-4.87
2022-12-13T15:29:53.589Z,-4.96
2022-12-13T15:34:54.846Z,-4.91
2022-12-13T15:39:58.999Z,-5.04
2022-12-13T15:45:05.671Z,-5.02
2022-12-13T15:50:07.830Z,-5.09
2022-12-13T15:55:36.303Z,-4.98
2022-12-13T16:00:37.083Z,-5.07
2022-12-13T16:05:48.411Z,-4.98
2022-12-13T16:10:52.372Z,-4.97
2022-12-13T16:15:59.805Z,-4.92
2022-12-13T16:21:01.351Z,-5.01
2022-12-13T16:26:08.514Z,-5.03
2022-12-13T16:31:34.513Z,-5.07
2022-12-13T16:36:35.967Z,-5.02
2022-12-13T16:41:38.872Z,-5.07
2022-12-13T16:47:13.096Z,-5.09
2022-12-13T16:52:21.094Z,-5.15
2022-12-13T16:57:21.826Z,-5.13
2022-12-13T17:02:22.896Z,-5.13
2022-12-13T17:07:23.764Z,-5.13
2022-12-13T17:12:25.611Z,-5.07
2022-12-13T17:17:26.677Z,-5.03
2022-12-13T17:22:27.575Z,-4.99
2022-12-13T17:27:29.313Z,-4.99
2022-12-13T17:32:30.036Z,-5.13
2022-12-13T17:37:31.360Z,-5.18
2022-12-13T17:42:33.757Z,-5.14
2022-12-13T17:47:34.505Z,-5.13
2022-12-13T17:52:37.412Z,-5.24
2022-12-13T17:57:38.122Z,-5.15
2022-12-13T18:02:39.134Z,-5.12
2022-12-13T18:07:40.141Z,-5.10
2022-12-13T18:12:40.903Z,-5.16
2022-12-13T18:18:10.167Z,-5.08
2022-12-13T18:23:12.853Z,-5.03
2022-12-13T18:28:13.576Z,-5.07
2022-12-13T18:33:14.350Z,-5.09
2022-12-13T18:38:15.140Z,-5.03
2022-12-13T18:43:17.504Z,-5.12
2022-12-13T18:48:19.236Z,-5.10
2022-12-13T18:53:19.964Z,-5.11
2022-12-13T18:58:20.721Z,-5.21
2022-12-13T19:03:21.552Z,-5.21
2022-12-13T19:08:25.298Z,-5.17
2022-12-13T19:13:27.230Z,-5.18
2022-12-13T19:18:29.085Z,-5.25
2022-12-13T19:23:30.317Z,-5.32
2022-12-13T19:28:32.156Z,-5.34
2022-12-13T19:33:34.256Z,-5.37
2022-12-13T19:38:35.200Z,-5.30
2022-12-13T19:43:36.104Z,-5.32
2022-12-13T19:48:38.101Z,-5.43
2022-12-13T19:53:39.167Z,-5.47
2022-12-13T19:58:40.323Z,-5.42
2022-12-13T20:03:44.738Z,-5.55
2022-12-13T20:08:46.189Z,-5.47
2022-12-13T20:13:48.573Z,-5.37
2022-12-13T20:18:54.981Z,-5.35
2022-12-13T20:23:57.246Z,-5.35
2022-12-13T20:28:59.305Z,-5.47
2022-12-13T20:34:02.703Z,-5.49
2022-12-13T20:39:05.048Z,-5.42
2022-12-13T20:44:07.616Z,-5.34
2022-12-13T20:49:09.814Z,-5.35
2022-12-13T20:54:10.554Z,-5.33
2022-12-13T20:59:12.373Z,-5.44
2022-12-13T21:04:13.103Z,-5.43
2022-12-13T21:09:14.042Z,-5.34
2022-12-13T21:14:24.521Z,-5.33
2022-12-13T21:19:37.506Z,-5.32
2022-12-13T21:24:40.558Z,-5.31
2022-12-13T21:29:41.296Z,-5.34
2022-12-13T21:34:42.643Z,-5.30
2022-12-13T21:39:43.447Z,-5.20
2022-12-13T21:44:44.273Z,-5.24
2022-12-13T21:49:48.349Z,-5.36
2022-12-13T21:54:52.904Z,-5.45
2022-12-13T22:00:00.915Z,-5.41
2022-12-13T22:05:01.659Z,-5.41
2022-12-13T22:10:03.212Z,-5.49
2022-12-13T22:15:07.546Z,-5.48
2022-12-13T22:20:11.793Z,-5.39
2022-12-13T22:25:12.574Z,-5.40
2022-12-13T22:30:13.481Z,-5.45
2022-12-13T22:35:14.415Z,-5.39
2022-12-13T22:40:15.995Z,-5.33
2022-12-13T22:45:16.797Z,-5.26
2022-12-13T22:50:19.977Z,-5.25
2022-12-13T22:55:20.716Z,-5.33
2022-12-13T23:00:21.526Z,-5.34
2022-12-13T23:05:22.279Z,-5.28
2022-12-13T23:10:41.443Z,-5.28
2022-12-13T23:15:47.604Z,-5.32
2022-12-13T23:20:50.081Z,-5.22
2022-12-13T23:25:50.840Z,-5.25
2022-12-13T23:30:51.782Z,-5.23
2022-12-13T23:36:09.878Z,-5.24
2022-12-13T23:41:21.755Z,-5.23
2022-12-13T23:46:29.668Z,-5.17
2022-12-13T23:51:30.725Z,-5.27
2022-12-13T23:56:31.520Z,-5.23
